createdAt,value
2022-12-29T00:01:53.957Z,8.53
2022-12-29T00:04:22.004Z,8.10
2022-12-29T00:06:50.291Z,7.93
2022-12-29T00:09:19.765Z,7.87
2022-12-29T00:11:48.402Z,8.20
2022-12-29T00:14:33.722Z,7.87
2022-12-29T00:17:01.941Z,8.20
2022-12-29T00:19:47.666Z,8.90
2022-12-29T00:22:34.290Z,9.83
2022-12-29T00:25:21.629Z,9.60
2022-12-29T00:28:07.454Z,9.40
2022-12-29T00:30:55.211Z,10.10
2022-12-29T00:33:44.926Z,9.07
2022-12-29T00:36:17.997Z,8.57
2022-12-29T00:39:07.617Z,8.70
2022-12-29T00:41:54.709Z,8.00
2022-12-29T00:44:22.757Z,7.77
2022-12-29T00:46:51.078Z,7.73
2022-12-29T00:49:33.283Z,8.37
2022-12-29T00:52:04.454Z,8.53
2022-12-29T00:54:35.898Z,7.77
2022-12-29T00:57:06.867Z,7.53
2022-12-29T00:59:37.301Z,8.03
2022-12-29T01:02:05.603Z,8.23
2022-12-29T01:04:33.770Z,8.43
2022-12-29T01:07:01.969Z,8.33
2022-12-29T01:09:47.918Z,8.80
2022-12-29T01:12:17.288Z,7.90
2022-12-29T01:14:46.349Z,8.43
2022-12-29T01:17:14.502Z,8.80
2022-12-29T01:19:42.445Z,9.10
2022-12-29T01:22:10.610Z,8.07
2022-12-29T01:24:38.912Z,8.30
2022-12-29T01:27:06.945Z,9.20
2022-12-29T01:29:36.657Z,8.30
2022-12-29T01:32:04.793Z,8.90
2022-12-29T01:34:32.812Z,8.47
2022-12-29T01:37:00.911Z,8.60
2022-12-29T01:39:28.955Z,8.57
2022-12-29T01:41:57.117Z,8.10
2022-12-29T01:44:51.888Z,8.47
2022-12-29T01:47:27.220Z,8.10
2022-12-29T01:49:57.038Z,7.87
2022-12-29T01:52:27.059Z,8.10
2022-12-29T01:54:57.370Z,8.00
2022-12-29T01:57:28.804Z,8.53
2022-12-29T02:00:04.668Z,7.87
2022-12-29T02:02:34.291Z,8.23
2022-12-29T02:05:09.706Z,7.80
2022-12-29T02:07:38.682Z,8.10
2022-12-29T02:10:08.086Z,7.10
2022-12-29T02:12:36.279Z,7.87
2022-12-29T02:15:07.055Z,8.10
2022-12-29T02:17:57.937Z,7.93
2022-12-29T02:20:48.909Z,7.17
2022-12-29T02:23:39.246Z,7.80
2022-12-29T02:26:26.047Z,7.60
2022-12-29T02:29:23.183Z,7.80
2022-12-29T02:32:01.045Z,7.30
2022-12-29T02:34:42.206Z,7.83
2022-12-29T02:37:22.010Z,7.00
2022-12-29T02:39:59.245Z,7.23
2022-12-29T02:42:36.376Z,7.47
2022-12-29T02:45:08.403Z,7.57
2022-12-29T02:47:47.241Z,7.17
2022-12-29T02:50:19.764Z,7.40
2022-12-29T02:52:53.586Z,7.70
2022-12-29T02:55:20.666Z,8.03
2022-12-29T02:57:48.681Z,8.07
2022-12-29T03:00:19.684Z,7.40
2022-12-29T03:03:08.569Z,7.43
2022-12-29T03:06:07.469Z,7.67
2022-12-29T03:08:51.585Z,7.90
2022-12-29T03:11:37.442Z,7.67
2022-12-29T03:14:29.856Z,7.53
2022-12-29T03:17:01.852Z,7.20
2022-12-29T03:19:36.819Z,7.40
2022-12-29T03:22:25.727Z,6.70
2022-12-29T03:24:58.633Z,7.20
2022-12-29T03:27:31.472Z,7.43
2022-12-29T03:30:03.063Z,7.07
2022-12-29T03:32:34.857Z,7.60
2022-12-29T03:35:05.759Z,7.10
2022-12-29T03:37:39.893Z,6.77
2022-12-29T03:40:09.439Z,7.93
2022-12-29T03:42:39.451Z,7.47
2022-12-29T03:45:09.871Z,7.50
2022-12-29T03:47:38.523Z,7.10
2022-12-29T03:50:09.711Z,6.90
2022-12-29T03:52:37.845Z,7.43
2022-12-29T03:55:06.747Z,6.90
2022-12-29T03:57:35.706Z,6.77
2022-12-29T04:00:05.093Z,6.67
2022-12-29T04:02:33.487Z,7.37
2022-12-29T04:05:02.697Z,7.27
2022-12-29T04:07:32.121Z,6.83
2022-12-29T04:10:00.358Z,6.50
2022-12-29T04:12:28.459Z,6.60
2022-12-29T04:14:56.458Z,6.73
2022-12-29T04:17:24.419Z,6.83
2022-12-29T04:20:15.732Z,6.80
2022-12-29T04:22:46.386Z,6.53
2022-12-29T04:25:14.552Z,5.83
2022-12-29T04:27:42.537Z,6.47
2022-12-29T04:30:12.543Z,6.40
2022-12-29T04:32:40.677Z,6.23
2022-12-29T04:35:09.601Z,6.40
2022-12-29T04:37:37.740Z,5.97
2022-12-29T04:40:08.882Z,5.43
2022-12-29T04:42:37.137Z,5.87
2022-12-29T04:45:05.597Z,5.40
2022-12-29T04:47:33.612Z,5.33
2022-12-29T04:50:02.630Z,5.60
2022-12-29T04:52:30.769Z,4.73
2022-12-29T04:54:59.046Z,5.30
2022-12-29T04:57:28.729Z,5.70
2022-12-29T04:59:56.849Z,5.40
2022-12-29T05:02:25.187Z,5.33
2022-12-29T05:04:53.396Z,5.67
2022-12-29T05:07:21.447Z,5.27
2022-12-29T05:09:49.540Z,5.83
2022-12-29T05:12:18.042Z,5.90
2022-12-29T05:14:47.472Z,5.47
2022-12-29T05:17:17.280Z,5.93
2022-12-29T05:19:45.504Z,5.07
2022-12-29T05:22:13.510Z,5.70
2022-12-29T05:24:42.526Z,4.60
2022-12-29T05:27:10.914Z,5.17
2022-12-29T05:29:39.166Z,5.60
2022-12-29T05:32:08.720Z,5.27
2022-12-29T05:34:36.746Z,5.37
2022-12-29T05:37:04.749Z,5.13
2022-12-29T05:39:32.895Z,5.43
2022-12-29T05:42:00.938Z,6.07
2022-12-29T05:44:29.033Z,5.77
2022-12-29T05:46:57.259Z,5.63
2022-12-29T05:49:26.733Z,4.80
2022-12-29T05:51:54.770Z,5.10
2022-12-29T05:54:22.770Z,5.53
2022-12-29T05:56:50.737Z,5.30
2022-12-29T05:59:18.801Z,5.80
2022-12-29T06:01:46.943Z,5.63
2022-12-29T06:04:15.259Z,4.90
2022-12-29T06:06:44.608Z,5.40
2022-12-29T06:09:15.536Z,5.30
2022-12-29T06:11:44.044Z,5.70
2022-12-29T06:14:12.143Z,5.77
2022-12-29T06:16:40.320Z,6.50
2022-12-29T06:19:08.321Z,8.17
2022-12-29T06:21:36.379Z,9.50
2022-12-29T06:24:06.704Z,8.63
2022-12-29T06:26:34.760Z,5.77
2022-12-29T06:29:03.856Z,6.50
2022-12-29T06:31:32.750Z,5.63
2022-12-29T06:34:08.335Z,6.10
2022-12-29T06:36:36.732Z,5.93
2022-12-29T06:39:06.185Z,5.53
2022-12-29T06:41:34.545Z,6.77
2022-12-29T06:44:02.535Z,6.93
2022-12-29T06:46:30.797Z,6.40
2022-12-29T06:48:59.019Z,6.93
2022-12-29T06:51:27.168Z,7.33
2022-12-29T06:53:55.475Z,7.73
2022-12-29T06:56:24.896Z,8.43
2022-12-29T06:58:52.916Z,7.63
2022-12-29T07:01:21.199Z,7.40
2022-12-29T07:03:49.338Z,6.07
2022-12-29T07:06:17.559Z,6.10
2022-12-29T07:08:45.863Z,5.73
2022-12-29T07:11:13.932Z,6.07
2022-12-29T07:13:43.583Z,11.53
2022-12-29T07:16:12.758Z,42.50
2022-12-29T07:18:40.897Z,20.50
2022-12-29T07:21:08.861Z,19.97
2022-12-29T07:23:37.093Z,14.63
2022-12-29T07:26:07.394Z,14.57
2022-12-29T07:28:36.407Z,14.93
2022-12-29T07:31:06.217Z,12.60
2022-12-29T07:33:34.986Z,15.17
2022-12-29T07:36:02.918Z,16.37
2022-12-29T07:38:31.119Z,8.50
2022-12-29T07:41:00.424Z,7.03
2022-12-29T07:43:28.493Z,7.40
2022-12-29T07:45:56.644Z,7.60
2022-12-29T07:48:26.090Z,7.67
2022-12-29T07:50:54.739Z,7.03
2022-12-29T07:53:22.796Z,6.10
2022-12-29T07:55:50.872Z,5.00
2022-12-29T07:58:19.712Z,4.87
2022-12-29T08:00:47.666Z,4.43
2022-12-29T08:03:15.670Z,4.60
2022-12-29T08:05:45.132Z,4.60
2022-12-29T08:08:13.108Z,4.47
2022-12-29T08:10:41.392Z,4.60
2022-12-29T08:13:09.428Z,4.53
2022-12-29T08:15:39.163Z,3.93
2022-12-29T08:18:07.506Z,4.77
2022-12-29T08:20:35.494Z,5.63
2022-12-29T08:23:04.802Z,5.97
2022-12-29T08:25:32.963Z,5.80
2022-12-29T08:28:01.176Z,6.10
2022-12-29T08:30:29.327Z,6.27
2022-12-29T08:32:57.401Z,5.93
2022-12-29T08:35:25.377Z,6.07
2022-12-29T08:37:53.948Z,5.50
2022-12-29T08:40:23.310Z,5.67
2022-12-29T08:42:51.775Z,5.70
2022-12-29T08:45:19.950Z,4.90
2022-12-29T08:47:47.929Z,5.40
2022-12-29T08:50:16.191Z,5.73
2022-12-29T08:52:44.154Z,4.73
2022-12-29T08:55:12.398Z,4.40
2022-12-29T08:57:42.341Z,6.03
2022-12-29T09:00:11.777Z,4.90
2022-12-29T09:02:40.035Z,4.93
2022-12-29T09:05:09.394Z,4.77
2022-12-29T09:07:39.551Z,4.83
2022-12-29T09:10:08.800Z,4.70
2022-12-29T09:12:37.103Z,4.70
2022-12-29T09:15:08.172Z,4.80
2022-12-29T09:17:48.288Z,5.30
2022-12-29T09:20:18.432Z,4.47
2022-12-29T09:22:48.279Z,5.05
2022-12-29T09:25:16.573Z,4.47
2022-12-29T09:27:44.689Z,4.57
2022-12-29T09:30:15.786Z,5.30
2022-12-29T09:32:45.422Z,4.43
2022-12-29T09:35:15.174Z,4.70
2022-12-29T09:37:43.706Z,4.80
2022-12-29T09:40:27.021Z,4.50
2022-12-29T09:43:08.014Z,4.23
2022-12-29T09:45:44.461Z,4.60
2022-12-29T09:48:18.434Z,4.50
2022-12-29T09:50:52.456Z,5.10
2022-12-29T09:53:27.993Z,4.57
2022-12-29T09:56:00.176Z,5.03
2022-12-29T09:58:34.960Z,4.70
2022-12-29T10:01:08.209Z,4.87
2022-12-29T10:03:53.161Z,5.23
2022-12-29T10:06:26.626Z,5.20
2022-12-29T10:09:00.469Z,4.70
2022-12-29T10:11:43.618Z,10.07
2022-12-29T10:14:30.119Z,5.70
2022-12-29T10:17:10.897Z,5.40
2022-12-29T10:19:56.761Z,5.03
2022-12-29T10:22:41.044Z,4.73
2022-12-29T10:25:15.110Z,4.80
2022-12-29T10:27:45.806Z,4.83
2022-12-29T10:30:15.445Z,5.27
2022-12-29T10:32:51.171Z,4.93
2022-12-29T10:35:22.072Z,4.90
2022-12-29T10:37:59.743Z,4.93
2022-12-29T10:40:33.958Z,5.20
2022-12-29T10:43:22.889Z,5.07
2022-12-29T10:45:51.756Z,4.57
2022-12-29T10:48:30.123Z,4.47
2022-12-29T10:51:02.603Z,4.87
2022-12-29T10:53:37.504Z,5.00
2022-12-29T10:56:24.143Z,5.33
2022-12-29T10:58:53.567Z,6.33
2022-12-29T11:01:21.902Z,6.07
2022-12-29T11:04:06.171Z,5.37
2022-12-29T11:06:35.089Z,4.73
2022-12-29T11:09:12.112Z,9.97
2022-12-29T11:11:40.373Z,7.37
2022-12-29T11:14:15.193Z,5.40
2022-12-29T11:16:45.392Z,4.10
2022-12-29T11:19:26.014Z,4.57
2022-12-29T11:21:54.835Z,5.70
2022-12-29T11:24:26.047Z,5.40
2022-12-29T11:26:58.397Z,5.57
2022-12-29T11:29:28.873Z,6.33
2022-12-29T11:31:59.931Z,8.97
2022-12-29T11:34:35.295Z,10.90
2022-12-29T11:37:07.417Z,10.00
2022-12-29T11:39:41.528Z,10.60
2022-12-29T11:42:16.767Z,6.67
2022-12-29T11:44:47.514Z,5.33
2022-12-29T11:47:25.914Z,5.93
2022-12-29T11:49:58.406Z,5.90
2022-12-29T11:52:29.027Z,5.37
2022-12-29T11:54:58.677Z,4.87
2022-12-29T11:57:27.996Z,5.53
2022-12-29T11:59:57.300Z,5.87
2022-12-29T12:02:53.067Z,5.27
2022-12-29T12:05:33.151Z,4.93
2022-12-29T12:08:09.499Z,4.70
2022-12-29T12:10:43.892Z,4.07
2022-12-29T12:13:22.888Z,4.03
2022-12-29T12:15:57.467Z,3.97
2022-12-29T12:18:34.528Z,3.50
2022-12-29T12:21:12.727Z,3.00
2022-12-29T12:23:55.990Z,3.13
2022-12-29T12:26:32.367Z,2.90
2022-12-29T12:29:05.215Z,2.60
2022-12-29T12:31:47.970Z,2.63
2022-12-29T12:34:22.421Z,2.53
2022-12-29T12:37:02.724Z,2.57
2022-12-29T12:39:41.208Z,2.47
2022-12-29T12:42:26.400Z,2.83
2022-12-29T12:45:06.335Z,2.97
2022-12-29T12:47:52.811Z,2.87
2022-12-29T12:50:47.490Z,3.30
2022-12-29T12:53:33.616Z,2.80
2022-12-29T12:56:19.050Z,3.00
2022-12-29T12:58:56.081Z,2.50
2022-12-29T13:01:37.897Z,3.20
2022-12-29T13:04:38.260Z,3.40
2022-12-29T13:07:15.617Z,2.43
2022-12-29T13:10:02.457Z,2.50
2022-12-29T13:12:41.220Z,3.00
2022-12-29T13:15:23.486Z,3.13
2022-12-29T13:18:01.060Z,5.33
2022-12-29T13:20:38.681Z,4.90
2022-12-29T13:23:13.385Z,2.67
2022-12-29T13:25:50.460Z,5.43
2022-12-29T13:28:27.839Z,2.60
2022-12-29T13:31:02.876Z,4.47
2022-12-29T13:33:42.355Z,3.27
2022-12-29T13:36:22.568Z,3.00
2022-12-29T13:38:54.207Z,2.43
2022-12-29T13:41:31.537Z,3.83
2022-12-29T13:44:02.795Z,2.73
2022-12-29T13:46:35.630Z,4.73
2022-12-29T13:49:09.122Z,4.87
2022-12-29T13:51:43.556Z,15.77
2022-12-29T13:54:23.932Z,7.50
2022-12-29T13:56:58.398Z,14.93
2022-12-29T13:59:41.881Z,4.00
2022-12-29T14:02:29.647Z,5.43
2022-12-29T14:05:00.592Z,3.67
2022-12-29T14:07:29.254Z,4.00
2022-12-29T14:09:59.534Z,4.20
2022-12-29T14:12:35.285Z,4.33
2022-12-29T14:15:22.238Z,44.33
2022-12-29T14:18:15.805Z,37.90
2022-12-29T14:20:53.983Z,19.43
2022-12-29T14:23:37.064Z,8.70
2022-12-29T14:26:18.665Z,4.33
2022-12-29T14:28:49.258Z,14.23
2022-12-29T14:31:41.778Z,13.43
2022-12-29T14:34:32.724Z,3.60
2022-12-29T14:37:03.371Z,3.50
2022-12-29T14:39:36.878Z,3.97
2022-12-29T14:42:11.023Z,4.00
2022-12-29T14:44:50.192Z,4.33
2022-12-29T14:47:22.972Z,4.23
2022-12-29T14:49:51.979Z,4.97
2022-12-29T14:52:24.615Z,5.50
2022-12-29T14:54:55.821Z,4.50
2022-12-29T14:57:30.315Z,2.40
2022-12-29T15:00:07.594Z,1.50
2022-12-29T15:02:42.521Z,1.47
2022-12-29T15:05:28.946Z,1.40
2022-12-29T15:08:00.146Z,1.47
2022-12-29T15:10:34.315Z,1.50
2022-12-29T15:13:06.625Z,2.50
2022-12-29T15:15:40.517Z,1.80
2022-12-29T15:18:16.845Z,1.63
2022-12-29T15:20:45.363Z,1.60
2022-12-29T15:23:15.912Z,1.70
2022-12-29T15:25:51.942Z,1.57
2022-12-29T15:28:23.433Z,1.37
2022-12-29T15:31:05.142Z,1.17
2022-12-29T15:33:33.185Z,1.37
2022-12-29T15:36:12.795Z,1.30
2022-12-29T15:38:41.277Z,1.27
2022-12-29T15:41:23.809Z,1.40
2022-12-29T15:43:59.424Z,1.33
2022-12-29T15:46:29.568Z,1.30
2022-12-29T15:48:57.940Z,1.20
2022-12-29T15:51:31.848Z,1.80
2022-12-29T15:54:00.372Z,3.20
2022-12-29T15:56:31.390Z,3.17
2022-12-29T15:58:59.989Z,2.60
2022-12-29T16:01:33.385Z,2.43
2022-12-29T16:04:03.319Z,2.00
2022-12-29T16:06:34.176Z,2.00
2022-12-29T16:09:04.608Z,1.77
2022-12-29T16:11:37.241Z,1.80
2022-12-29T16:14:11.845Z,2.17
2022-12-29T16:16:43.993Z,1.60
2022-12-29T16:19:16.867Z,1.97
2022-12-29T16:21:45.857Z,1.60
2022-12-29T16:24:17.263Z,1.47
2022-12-29T16:26:50.889Z,1.20
2022-12-29T16:29:21.899Z,1.10
2022-12-29T16:32:01.819Z,1.23
2022-12-29T16:34:32.902Z,0.80
2022-12-29T16:37:02.355Z,1.50
2022-12-29T16:39:33.541Z,1.60
2022-12-29T16:42:02.364Z,1.77
2022-12-29T16:44:32.485Z,1.43
2022-12-29T16:47:19.361Z,2.60
2022-12-29T16:49:53.001Z,2.33
2022-12-29T16:52:23.941Z,1.70
2022-12-29T16:54:55.731Z,4.40
2022-12-29T16:57:30.168Z,4.40
2022-12-29T17:00:01.431Z,15.60
2022-12-29T17:02:33.428Z,16.77
2022-12-29T17:05:01.830Z,27.97
2022-12-29T17:07:30.781Z,12.60
2022-12-29T17:09:59.042Z,12.77
2022-12-29T17:12:29.931Z,5.37
2022-12-29T17:14:59.908Z,5.90
2022-12-29T17:17:34.633Z,5.03
2022-12-29T17:20:05.562Z,5.03
2022-12-29T17:22:34.330Z,4.10
2022-12-29T17:25:03.769Z,4.37
2022-12-29T17:27:37.161Z,6.80
2022-12-29T17:30:11.083Z,4.50
2022-12-29T17:32:41.374Z,3.70
2022-12-29T17:35:15.705Z,4.10
2022-12-29T17:37:44.214Z,4.10
2022-12-29T17:40:20.609Z,3.83
2022-12-29T17:42:50.344Z,4.00
2022-12-29T17:45:21.779Z,8.10
2022-12-29T17:47:51.307Z,8.27
2022-12-29T17:50:21.975Z,7.80
2022-12-29T17:52:55.348Z,4.40
2022-12-29T17:55:34.781Z,5.40
2022-12-29T17:58:16.383Z,5.63
2022-12-29T18:00:44.643Z,4.17
2022-12-29T18:03:18.117Z,5.93
2022-12-29T18:05:46.607Z,9.57
2022-12-29T18:08:14.807Z,16.97
2022-12-29T18:10:43.635Z,10.73
2022-12-29T18:13:22.412Z,18.00
2022-12-29T18:15:51.134Z,18.63
2022-12-29T18:18:22.719Z,33.03
2022-12-29T18:20:52.809Z,24.27
2022-12-29T18:23:22.825Z,28.13
2022-12-29T18:25:54.091Z,21.47
2022-12-29T18:28:23.618Z,14.23
2022-12-29T18:30:51.783Z,12.77
2022-12-29T18:33:26.046Z,29.50
2022-12-29T18:35:57.632Z,19.97
2022-12-29T18:38:26.220Z,33.67
2022-12-29T18:40:54.878Z,26.03
2022-12-29T18:43:23.160Z,10.90
2022-12-29T18:45:51.399Z,11.37
2022-12-29T18:48:21.911Z,19.63
2022-12-29T18:50:52.000Z,9.37
2022-12-29T18:53:22.186Z,7.10
2022-12-29T18:55:50.525Z,7.77
2022-12-29T18:58:18.550Z,9.23
2022-12-29T19:00:49.957Z,8.93
2022-12-29T19:03:19.977Z,8.23
2022-12-29T19:05:49.966Z,11.33
2022-12-29T19:08:18.171Z,25.40
2022-12-29T19:10:47.258Z,25.97
2022-12-29T19:13:18.568Z,13.77
2022-12-29T19:15:47.827Z,11.13
2022-12-29T19:21:09.722Z,17.33
2022-12-29T19:23:37.960Z,9.33
2022-12-29T19:26:06.245Z,13.37
2022-12-29T19:28:34.615Z,8.37
2022-12-29T19:31:04.749Z,11.17
2022-12-29T19:33:32.913Z,18.10
2022-12-29T19:36:02.946Z,14.80
2022-12-29T19:38:32.643Z,14.73
2022-12-29T19:41:00.830Z,18.80
2022-12-29T19:43:29.024Z,18.37
2022-12-29T19:45:57.252Z,18.93
2022-12-29T19:48:28.284Z,13.60
2022-12-29T19:50:56.279Z,13.27
2022-12-29T19:53:24.340Z,13.20
2022-12-29T19:55:53.754Z,14.07
2022-12-29T19:58:21.853Z,12.70
2022-12-29T20:00:51.370Z,12.43
2022-12-29T20:03:20.417Z,11.30
2022-12-29T20:05:51.601Z,11.73
2022-12-29T20:08:19.763Z,11.97
2022-12-29T20:10:47.769Z,12.43
2022-12-29T20:13:17.187Z,12.00
2022-12-29T20:15:45.298Z,11.97
2022-12-29T20:18:14.692Z,12.47
2022-12-29T20:20:43.396Z,13.43
2022-12-29T20:23:11.597Z,13.70
2022-12-29T20:25:45.162Z,14.40
2022-12-29T20:28:15.492Z,14.43
2022-12-29T20:30:46.042Z,15.13
2022-12-29T20:33:15.768Z,16.00
2022-12-29T20:35:43.756Z,16.70
2022-12-29T20:38:12.392Z,16.43
2022-12-29T20:40:46.173Z,16.47
2022-12-29T20:43:16.256Z,18.13
2022-12-29T20:45:46.145Z,20.93
2022-12-29T20:48:14.437Z,20.30
2022-12-29T20:50:42.841Z,20.77
2022-12-29T20:53:11.780Z,16.37
2022-12-29T20:55:41.293Z,16.07
2022-12-29T20:58:25.373Z,14.17
2022-12-29T21:00:55.885Z,14.60
2022-12-29T21:03:25.596Z,15.20
2022-12-29T21:05:55.324Z,15.63
2022-12-29T21:08:23.942Z,16.43
2022-12-29T21:10:52.428Z,15.20
2022-12-29T21:13:21.158Z,16.70
2022-12-29T21:15:49.882Z,19.33
2022-12-29T21:18:19.407Z,20.30
2022-12-29T21:20:56.371Z,18.97
2022-12-29T21:23:24.805Z,19.73
2022-12-29T21:25:53.827Z,19.83
2022-12-29T21:28:22.990Z,19.77
2022-12-29T21:30:52.360Z,18.13
2022-12-29T21:33:22.942Z,18.90
2022-12-29T21:35:51.304Z,18.97
2022-12-29T21:38:19.439Z,18.00
2022-12-29T21:40:47.599Z,17.77
2022-12-29T21:43:15.588Z,17.37
2022-12-29T21:45:42.601Z,17.07
2022-12-29T21:48:24.056Z,16.87
2022-12-29T21:51:13.247Z,16.57
2022-12-29T21:53:43.682Z,17.47
2022-12-29T21:56:14.302Z,17.30
2022-12-29T21:59:02.025Z,15.73
2022-12-29T22:01:49.939Z,16.53
2022-12-29T22:04:37.559Z,14.30
2022-12-29T22:07:26.411Z,14.17
2022-12-29T22:10:12.327Z,13.50
2022-12-29T22:12:59.957Z,13.03
2022-12-29T22:15:29.237Z,14.10
2022-12-29T22:17:57.458Z,19.13
2022-12-29T22:20:27.358Z,22.70
2022-12-29T22:22:57.134Z,18.77
2022-12-29T22:25:25.228Z,13.77
2022-12-29T22:27:58.977Z,11.93
2022-12-29T22:30:28.435Z,11.80
2022-12-29T22:32:58.175Z,12.43
2022-12-29T22:35:26.464Z,12.27
2022-12-29T22:37:56.098Z,12.60
2022-12-29T22:40:24.381Z,16.83
2022-12-29T22:42:52.516Z,18.00
2022-12-29T22:45:20.600Z,15.67
2022-12-29T22:47:48.620Z,16.47
2022-12-29T22:50:16.677Z,13.83
2022-12-29T22:52:44.999Z,14.97
2022-12-29T22:55:14.451Z,17.60
2022-12-29T22:57:42.454Z,17.70
2022-12-29T23:00:11.291Z,16.93
2022-12-29T23:02:39.603Z,15.60
2022-12-29T23:05:08.109Z,19.17
2022-12-29T23:07:36.579Z,22.20
2022-12-29T23:10:05.901Z,17.27
2022-12-29T23:12:35.273Z,48.80
2022-12-29T23:15:03.292Z,29.63
2022-12-29T23:17:31.535Z,23.33
2022-12-29T23:19:59.701Z,15.70
2022-12-29T23:22:27.687Z,16.20
2022-12-29T23:24:55.979Z,14.27
2022-12-29T23:27:24.545Z,13.57
2022-12-29T23:29:53.921Z,14.27
2022-12-29T23:32:22.277Z,12.53
2022-12-29T23:34:50.299Z,13.10
2022-12-29T23:37:18.281Z,12.57
2022-12-29T23:39:46.453Z,12.63
2022-12-29T23:42:14.434Z,12.47
2022-12-29T23:44:42.417Z,12.67
2022-12-29T23:47:11.786Z,13.27
2022-12-29T23:49:40.046Z,11.53
2022-12-29T23:52:08.073Z,13.47
2022-12-29T23:54:36.040Z,13.63
2022-12-29T23:57:04.082Z,13.37
2022-12-29T23:59:32.075Z,13.73
